sensor_id;sensor_type;location;lat;lon;timestamp;P1;durP1;ratioP1;P2;durP2;ratioP2
69954;SDS011;57279;55.912;37.490;2022-09-29T00:01:08;10.73;;;4.35;;
69954;SDS011;57279;55.912;37.490;2022-09-29T00:03:35;12.20;;;4.40;;
69954;SDS011;57279;55.912;37.490;2022-09-29T00:06:01;10.55;;;4.35;;
69954;SDS011;57279;55.912;37.490;2022-09-29T00:10:53;12.00;;;4.47;;
69954;SDS011;57279;55.912;37.490;2022-09-29T00:15:53;10.65;;;3.97;;
69954;SDS011;57279;55.912;37.490;2022-09-29T00:18:23;13.13;;;4.30;;
69954;SDS011;57279;55.912;37.490;2022-09-29T00:23:25;9.52;;;3.53;;
69954;SDS011;57279;55.912;37.490;2022-09-29T00:26:12;14.95;;;4.10;;
69954;SDS011;57279;55.912;37.490;2022-09-29T00:28:45;9.85;;;4.15;;
69954;SDS011;57279;55.912;37.490;2022-09-29T00:31:13;10.63;;;3.80;;
69954;SDS011;57279;55.912;37.490;2022-09-29T00:36:05;12.63;;;3.78;;
69954;SDS011;57279;55.912;37.490;2022-09-29T00:38:34;10.50;;;4.40;;
69954;SDS011;57279;55.912;37.490;2022-09-29T00:41:00;12.48;;;3.90;;
69954;SDS011;57279;55.912;37.490;2022-09-29T00:46:43;9.57;;;3.92;;
69954;SDS011;57279;55.912;37.490;2022-09-29T00:52:12;9.00;;;3.30;;
69954;SDS011;57279;55.912;37.490;2022-09-29T00:54:39;9.48;;;3.63;;
69954;SDS011;57279;55.912;37.490;2022-09-29T00:57:10;9.27;;;3.88;;
69954;SDS011;57279;55.912;37.490;2022-09-29T00:59:44;9.45;;;3.83;;
69954;SDS011;57279;55.912;37.490;2022-09-29T01:02:19;9.45;;;3.42;;
69954;SDS011;57279;55.912;37.490;2022-09-29T01:04:47;9.02;;;3.65;;
69954;SDS011;57279;55.912;37.490;2022-09-29T01:07:16;10.02;;;4.07;;
69954;SDS011;57279;55.912;37.490;2022-09-29T01:09:43;8.68;;;4.00;;
69954;SDS011;57279;55.912;37.490;2022-09-29T01:14:34;11.18;;;4.18;;
69954;SDS011;57279;55.912;37.490;2022-09-29T01:17:03;9.20;;;3.60;;
69954;SDS011;57279;55.912;37.490;2022-09-29T01:41:59;8.75;;;2.85;;
69954;SDS011;57279;55.912;37.490;2022-09-29T01:49:52;11.35;;;3.90;;
69954;SDS011;57279;55.912;37.490;2022-09-29T01:52:25;10.90;;;3.95;;
69954;SDS011;57279;55.912;37.490;2022-09-29T01:55:02;14.75;;;4.03;;
69954;SDS011;57279;55.912;37.490;2022-09-29T01:57:42;13.10;;;4.35;;
69954;SDS011;57279;55.912;37.490;2022-09-29T02:00:13;10.40;;;4.45;;
69954;SDS011;57279;55.912;37.490;2022-09-29T02:05:15;13.55;;;4.63;;
69954;SDS011;57279;55.912;37.490;2022-09-29T02:07:49;12.32;;;4.50;;
69954;SDS011;57279;55.912;37.490;2022-09-29T02:12:43;12.13;;;4.68;;
69954;SDS011;57279;55.912;37.490;2022-09-29T02:15:13;12.80;;;5.13;;
69954;SDS011;57279;55.912;37.490;2022-09-29T02:17:44;10.45;;;4.22;;
69954;SDS011;57279;55.912;37.490;2022-09-29T02:20:14;12.32;;;4.90;;
69954;SDS011;57279;55.912;37.490;2022-09-29T02:25:07;11.77;;;4.55;;
69954;SDS011;57279;55.912;37.490;2022-09-29T02:27:35;12.57;;;5.40;;
69954;SDS011;57279;55.912;37.490;2022-09-29T02:30:03;13.75;;;5.22;;
69954;SDS011;57279;55.912;37.490;2022-09-29T02:32:30;12.27;;;4.88;;
69954;SDS011;57279;55.912;37.490;2022-09-29T02:34:59;12.05;;;4.65;;
69954;SDS011;57279;55.912;37.490;2022-09-29T02:37:35;12.35;;;5.22;;
69954;SDS011;57279;55.912;37.490;2022-09-29T02:45:20;14.52;;;4.82;;
69954;SDS011;57279;55.912;37.490;2022-09-29T02:53:05;12.30;;;5.28;;
69954;SDS011;57279;55.912;37.490;2022-09-29T02:55:40;13.77;;;5.03;;
69954;SDS011;57279;55.912;37.490;2022-09-29T03:01:04;10.52;;;4.65;;
69954;SDS011;57279;55.912;37.490;2022-09-29T03:03:31;11.05;;;4.90;;
69954;SDS011;57279;55.912;37.490;2022-09-29T03:05:57;12.25;;;4.97;;
69954;SDS011;57279;55.912;37.490;2022-09-29T03:10:48;11.65;;;4.55;;
69954;SDS011;57279;55.912;37.490;2022-09-29T03:15:40;10.88;;;4.75;;
69954;SDS011;57279;55.912;37.490;2022-09-29T03:20:31;14.70;;;5.65;;
69954;SDS011;57279;55.912;37.490;2022-09-29T03:25:23;12.57;;;4.35;;
69954;SDS011;57279;55.912;37.490;2022-09-29T03:27:49;10.73;;;4.28;;
69954;SDS011;57279;55.912;37.490;2022-09-29T03:30:16;12.93;;;4.75;;
69954;SDS011;57279;55.912;37.490;2022-09-29T03:32:43;12.30;;;4.63;;
69954;SDS011;57279;55.912;37.490;2022-09-29T03:37:34;11.80;;;4.85;;
69954;SDS011;57279;55.912;37.490;2022-09-29T03:42:26;11.95;;;4.68;;
69954;SDS011;57279;55.912;37.490;2022-09-29T03:44:53;15.57;;;5.32;;
69954;SDS011;57279;55.912;37.490;2022-09-29T03:47:19;14.60;;;5.32;;
69954;SDS011;57279;55.912;37.490;2022-09-29T03:52:10;13.82;;;4.68;;
69954;SDS011;57279;55.912;37.490;2022-09-29T03:57:01;11.85;;;4.53;;
69954;SDS011;57279;55.912;37.490;2022-09-29T04:01:53;15.82;;;4.65;;
69954;SDS011;57279;55.912;37.490;2022-09-29T04:06:44;13.00;;;4.78;;
69954;SDS011;57279;55.912;37.490;2022-09-29T04:11:36;11.20;;;4.53;;
69954;SDS011;57279;55.912;37.490;2022-09-29T04:14:02;12.65;;;4.50;;
69954;SDS011;57279;55.912;37.490;2022-09-29T04:16:28;12.50;;;4.82;;
69954;SDS011;57279;55.912;37.490;2022-09-29T04:21:19;12.05;;;4.47;;
69954;SDS011;57279;55.912;37.490;2022-09-29T04:23:45;11.07;;;5.20;;
69954;SDS011;57279;55.912;37.490;2022-09-29T04:26:11;10.70;;;4.75;;
69954;SDS011;57279;55.912;37.490;2022-09-29T04:31:03;13.27;;;5.30;;
69954;SDS011;57279;55.912;37.490;2022-09-29T04:33:29;14.90;;;4.22;;
69954;SDS011;57279;55.912;37.490;2022-09-29T04:35:56;11.30;;;4.57;;
69954;SDS011;57279;55.912;37.490;2022-09-29T04:38:22;14.40;;;4.75;;
69954;SDS011;57279;55.912;37.490;2022-09-29T04:40:48;10.77;;;4.32;;
69954;SDS011;57279;55.912;37.490;2022-09-29T04:45:41;10.45;;;4.25;;
69954;SDS011;57279;55.912;37.490;2022-09-29T04:50:33;12.23;;;4.53;;
69954;SDS011;57279;55.912;37.490;2022-09-29T04:52:59;14.20;;;5.13;;
69954;SDS011;57279;55.912;37.490;2022-09-29T04:57:50;10.95;;;4.40;;
69954;SDS011;57279;55.912;37.490;2022-09-29T05:02:42;14.23;;;4.25;;
69954;SDS011;57279;55.912;37.490;2022-09-29T05:05:08;11.20;;;4.05;;
69954;SDS011;57279;55.912;37.490;2022-09-29T05:07:37;13.32;;;4.47;;
69954;SDS011;57279;55.912;37.490;2022-09-29T05:10:07;14.07;;;4.07;;
69954;SDS011;57279;55.912;37.490;2022-09-29T05:12:33;10.20;;;3.70;;
69954;SDS011;57279;55.912;37.490;2022-09-29T05:14:59;10.27;;;3.60;;
69954;SDS011;57279;55.912;37.490;2022-09-29T05:19:53;11.13;;;3.45;;
69954;SDS011;57279;55.912;37.490;2022-09-29T05:24:49;10.98;;;3.85;;
69954;SDS011;57279;55.912;37.490;2022-09-29T05:27:15;11.18;;;4.55;;
69954;SDS011;57279;55.912;37.490;2022-09-29T05:32:06;9.77;;;3.42;;
69954;SDS011;57279;55.912;37.490;2022-09-29T05:36:58;9.38;;;3.83;;
69954;SDS011;57279;55.912;37.490;2022-09-29T05:41:51;12.63;;;3.97;;
69954;SDS011;57279;55.912;37.490;2022-09-29T05:46:42;12.60;;;3.90;;
69954;SDS011;57279;55.912;37.490;2022-09-29T05:51:35;10.85;;;4.35;;
69954;SDS011;57279;55.912;37.490;2022-09-29T05:56:26;14.63;;;4.03;;
69954;SDS011;57279;55.912;37.490;2022-09-29T06:01:22;11.55;;;4.35;;
69954;SDS011;57279;55.912;37.490;2022-09-29T06:03:51;9.90;;;4.18;;
69954;SDS011;57279;55.912;37.490;2022-09-29T06:06:19;11.30;;;4.03;;
69954;SDS011;57279;55.912;37.490;2022-09-29T06:08:50;14.20;;;4.65;;
69954;SDS011;57279;55.912;37.490;2022-09-29T06:11:17;12.35;;;4.40;;
69954;SDS011;57279;55.912;37.490;2022-09-29T06:13:46;12.43;;;5.10;;
69954;SDS011;57279;55.912;37.490;2022-09-29T06:16:13;11.30;;;4.65;;
69954;SDS011;57279;55.912;37.490;2022-09-29T06:18:40;13.40;;;4.82;;
69954;SDS011;57279;55.912;37.490;2022-09-29T06:21:07;11.25;;;4.70;;
69954;SDS011;57279;55.912;37.490;2022-09-29T06:23:34;10.65;;;4.38;;
69954;SDS011;57279;55.912;37.490;2022-09-29T06:26:01;12.57;;;4.72;;
69954;SDS011;57279;55.912;37.490;2022-09-29T06:28:29;10.20;;;4.35;;
69954;SDS011;57279;55.912;37.490;2022-09-29T06:30:59;11.82;;;4.82;;
69954;SDS011;57279;55.912;37.490;2022-09-29T06:33:29;12.52;;;4.65;;
69954;SDS011;57279;55.912;37.490;2022-09-29T06:35:57;11.13;;;5.18;;
69954;SDS011;57279;55.912;37.490;2022-09-29T06:38:42;10.65;;;4.53;;
69954;SDS011;57279;55.912;37.490;2022-09-29T06:43:34;12.05;;;5.40;;
69954;SDS011;57279;55.912;37.490;2022-09-29T06:46:00;12.23;;;5.65;;
69954;SDS011;57279;55.912;37.490;2022-09-29T06:48:26;13.05;;;5.05;;
69954;SDS011;57279;55.912;37.490;2022-09-29T06:50:53;14.82;;;5.40;;
69954;SDS011;57279;55.912;37.490;2022-09-29T06:55:50;15.48;;;5.15;;
69954;SDS011;57279;55.912;37.490;2022-09-29T06:58:21;16.90;;;5.70;;
69954;SDS011;57279;55.912;37.490;2022-09-29T07:00:47;13.30;;;5.13;;
69954;SDS011;57279;55.912;37.490;2022-09-29T07:03:13;14.82;;;5.25;;
69954;SDS011;57279;55.912;37.490;2022-09-29T07:05:39;14.18;;;5.25;;
69954;SDS011;57279;55.912;37.490;2022-09-29T07:08:05;18.02;;;6.70;;
69954;SDS011;57279;55.912;37.490;2022-09-29T07:10:31;16.60;;;6.75;;
69954;SDS011;57279;55.912;37.490;2022-09-29T07:15:23;17.60;;;6.80;;
69954;SDS011;57279;55.912;37.490;2022-09-29T07:17:56;15.48;;;6.53;;
69954;SDS011;57279;55.912;37.490;2022-09-29T07:20:24;19.25;;;6.35;;
69954;SDS011;57279;55.912;37.490;2022-09-29T07:22:50;16.45;;;7.38;;
69954;SDS011;57279;55.912;37.490;2022-09-29T07:25:16;21.88;;;7.15;;
69954;SDS011;57279;55.912;37.490;2022-09-29T07:27:41;18.13;;;6.90;;
69954;SDS011;57279;55.912;37.490;2022-09-29T07:30:07;16.70;;;7.00;;
69954;SDS011;57279;55.912;37.490;2022-09-29T07:32:35;17.08;;;6.53;;
69954;SDS011;57279;55.912;37.490;2022-09-29T07:35:00;17.17;;;7.55;;
69954;SDS011;57279;55.912;37.490;2022-09-29T07:37:26;20.10;;;7.82;;
69954;SDS011;57279;55.912;37.490;2022-09-29T07:39:53;16.55;;;7.40;;
69954;SDS011;57279;55.912;37.490;2022-09-29T07:42:19;18.60;;;7.47;;
69954;SDS011;57279;55.912;37.490;2022-09-29T07:44:53;19.20;;;7.88;;
69954;SDS011;57279;55.912;37.490;2022-09-29T07:47:19;19.33;;;8.25;;
69954;SDS011;57279;55.912;37.490;2022-09-29T07:49:45;20.65;;;8.40;;
69954;SDS011;57279;55.912;37.490;2022-09-29T07:52:11;27.75;;;10.23;;
69954;SDS011;57279;55.912;37.490;2022-09-29T07:54:38;24.17;;;9.45;;
69954;SDS011;57279;55.912;37.490;2022-09-29T07:57:04;24.95;;;9.07;;
69954;SDS011;57279;55.912;37.490;2022-09-29T07:59:30;21.02;;;8.45;;
69954;SDS011;57279;55.912;37.490;2022-09-29T08:01:56;22.50;;;8.65;;
69954;SDS011;57279;55.912;37.490;2022-09-29T08:06:50;25.25;;;10.15;;
69954;SDS011;57279;55.912;37.490;2022-09-29T08:09:16;25.40;;;8.82;;
69954;SDS011;57279;55.912;37.490;2022-09-29T08:11:42;20.38;;;9.52;;
69954;SDS011;57279;55.912;37.490;2022-09-29T08:14:08;21.27;;;9.45;;
69954;SDS011;57279;55.912;37.490;2022-09-29T08:16:35;22.58;;;8.75;;
69954;SDS011;57279;55.912;37.490;2022-09-29T08:19:01;26.50;;;9.80;;
69954;SDS011;57279;55.912;37.490;2022-09-29T08:21:28;24.15;;;8.73;;
69954;SDS011;57279;55.912;37.490;2022-09-29T08:23:56;22.35;;;9.82;;
69954;SDS011;57279;55.912;37.490;2022-09-29T08:26:22;24.17;;;10.02;;
69954;SDS011;57279;55.912;37.490;2022-09-29T08:31:19;19.90;;;9.27;;
69954;SDS011;57279;55.912;37.490;2022-09-29T08:33:47;20.63;;;9.38;;
69954;SDS011;57279;55.912;37.490;2022-09-29T08:36:14;21.92;;;9.63;;
69954;SDS011;57279;55.912;37.490;2022-09-29T08:38:41;24.73;;;9.68;;
69954;SDS011;57279;55.912;37.490;2022-09-29T08:41:45;23.08;;;9.73;;
69954;SDS011;57279;55.912;37.490;2022-09-29T08:44:10;25.15;;;9.85;;
69954;SDS011;57279;55.912;37.490;2022-09-29T08:46:59;26.15;;;10.52;;
69954;SDS011;57279;55.912;37.490;2022-09-29T08:49:32;25.30;;;10.73;;
69954;SDS011;57279;55.912;37.490;2022-09-29T08:52:09;21.50;;;9.80;;
69954;SDS011;57279;55.912;37.490;2022-09-29T08:54:40;19.98;;;9.60;;
69954;SDS011;57279;55.912;37.490;2022-09-29T08:57:11;25.42;;;9.82;;
69954;SDS011;57279;55.912;37.490;2022-09-29T08:59:44;24.80;;;10.20;;
69954;SDS011;57279;55.912;37.490;2022-09-29T09:10:28;23.63;;;9.57;;
69954;SDS011;57279;55.912;37.490;2022-09-29T09:21:39;19.15;;;8.63;;
69954;SDS011;57279;55.912;37.490;2022-09-29T09:24:14;21.52;;;9.13;;
69954;SDS011;57279;55.912;37.490;2022-09-29T09:27:01;21.42;;;9.52;;
69954;SDS011;57279;55.912;37.490;2022-09-29T09:29:32;19.17;;;8.45;;
69954;SDS011;57279;55.912;37.490;2022-09-29T09:32:12;20.15;;;8.75;;
69954;SDS011;57279;55.912;37.490;2022-09-29T09:35:01;19.77;;;8.52;;
69954;SDS011;57279;55.912;37.490;2022-09-29T09:37:40;20.77;;;8.48;;
69954;SDS011;57279;55.912;37.490;2022-09-29T09:42:37;20.52;;;9.10;;
69954;SDS011;57279;55.912;37.490;2022-09-29T09:45:13;17.50;;;8.70;;
69954;SDS011;57279;55.912;37.490;2022-09-29T09:48:10;18.95;;;7.78;;
69954;SDS011;57279;55.912;37.490;2022-09-29T09:50:39;20.80;;;9.30;;
69954;SDS011;57279;55.912;37.490;2022-09-29T09:53:21;18.20;;;8.25;;
69954;SDS011;57279;55.912;37.490;2022-09-29T09:55:57;17.20;;;7.88;;
69954;SDS011;57279;55.912;37.490;2022-09-29T10:01:36;18.77;;;7.80;;
69954;SDS011;57279;55.912;37.490;2022-09-29T10:04:01;15.95;;;7.07;;
69954;SDS011;57279;55.912;37.490;2022-09-29T10:06:27;16.67;;;6.85;;
69954;SDS011;57279;55.912;37.490;2022-09-29T10:08:53;16.23;;;7.25;;
69954;SDS011;57279;55.912;37.490;2022-09-29T10:11:23;14.95;;;6.90;;
69954;SDS011;57279;55.912;37.490;2022-09-29T10:13:54;15.52;;;7.00;;
69954;SDS011;57279;55.912;37.490;2022-09-29T10:16:44;14.65;;;6.63;;
69954;SDS011;57279;55.912;37.490;2022-09-29T10:19:19;16.85;;;6.72;;
69954;SDS011;57279;55.912;37.490;2022-09-29T10:21:47;15.52;;;5.85;;
69954;SDS011;57279;55.912;37.490;2022-09-29T10:24:21;10.95;;;4.63;;
69954;SDS011;57279;55.912;37.490;2022-09-29T10:26:55;13.07;;;5.43;;
69954;SDS011;57279;55.912;37.490;2022-09-29T10:29:25;16.20;;;5.25;;
69954;SDS011;57279;55.912;37.490;2022-09-29T10:32:38;14.88;;;5.18;;
69954;SDS011;57279;55.912;37.490;2022-09-29T10:37:37;13.00;;;5.63;;
69954;SDS011;57279;55.912;37.490;2022-09-29T10:42:38;15.18;;;5.90;;
69954;SDS011;57279;55.912;37.490;2022-09-29T10:47:31;14.15;;;5.80;;
69954;SDS011;57279;55.912;37.490;2022-09-29T10:52:42;13.43;;;5.55;;
69954;SDS011;57279;55.912;37.490;2022-09-29T10:55:23;13.93;;;5.70;;
69954;SDS011;57279;55.912;37.490;2022-09-29T10:57:51;13.95;;;5.47;;
69954;SDS011;57279;55.912;37.490;2022-09-29T11:02:52;12.88;;;4.45;;
69954;SDS011;57279;55.912;37.490;2022-09-29T11:05:30;10.52;;;4.47;;
69954;SDS011;57279;55.912;37.490;2022-09-29T11:07:56;11.63;;;4.57;;
69954;SDS011;57279;55.912;37.490;2022-09-29T11:12:55;15.75;;;6.13;;
69954;SDS011;57279;55.912;37.490;2022-09-29T11:17:50;11.68;;;4.93;;
69954;SDS011;57279;55.912;37.490;2022-09-29T11:20:17;13.77;;;4.45;;
69954;SDS011;57279;55.912;37.490;2022-09-29T11:22:53;11.52;;;5.28;;
69954;SDS011;57279;55.912;37.490;2022-09-29T11:50:10;14.38;;;5.93;;
69954;SDS011;57279;55.912;37.490;2022-09-29T12:00:49;14.68;;;6.63;;
69954;SDS011;57279;55.912;37.490;2022-09-29T12:06:24;15.57;;;6.00;;
69954;SDS011;57279;55.912;37.490;2022-09-29T12:14:30;15.38;;;6.30;;
69954;SDS011;57279;55.912;37.490;2022-09-29T12:17:01;14.05;;;6.03;;
69954;SDS011;57279;55.912;37.490;2022-09-29T12:19:31;17.02;;;6.18;;
69954;SDS011;57279;55.912;37.490;2022-09-29T12:22:02;15.02;;;5.57;;
69954;SDS011;57279;55.912;37.490;2022-09-29T12:27:32;15.60;;;6.65;;
69954;SDS011;57279;55.912;37.490;2022-09-29T12:35:34;16.63;;;7.07;;
69954;SDS011;57279;55.912;37.490;2022-09-29T12:40:48;15.52;;;5.85;;
69954;SDS011;57279;55.912;37.490;2022-09-29T12:43:30;22.23;;;5.90;;
69954;SDS011;57279;55.912;37.490;2022-09-29T12:46:21;13.77;;;5.95;;
69954;SDS011;57279;55.912;37.490;2022-09-29T12:51:35;13.57;;;5.85;;
69954;SDS011;57279;55.912;37.490;2022-09-29T12:56:35;13.68;;;5.53;;
69954;SDS011;57279;55.912;37.490;2022-09-29T13:01:39;13.35;;;5.45;;
69954;SDS011;57279;55.912;37.490;2022-09-29T13:10:19;13.40;;;5.75;;
69954;SDS011;57279;55.912;37.490;2022-09-29T13:15:47;14.40;;;5.78;;
69954;SDS011;57279;55.912;37.490;2022-09-29T13:29:37;14.23;;;6.28;;
69954;SDS011;57279;55.912;37.490;2022-09-29T13:32:18;13.30;;;5.95;;
69954;SDS011;57279;55.912;37.490;2022-09-29T13:34:52;16.45;;;6.38;;
69954;SDS011;57279;55.912;37.490;2022-09-29T13:37:22;13.02;;;6.20;;
69954;SDS011;57279;55.912;37.490;2022-09-29T13:39:58;15.88;;;7.22;;
69954;SDS011;57279;55.912;37.490;2022-09-29T13:47:44;12.82;;;5.88;;
69954;SDS011;57279;55.912;37.490;2022-09-29T13:55:50;18.52;;;6.68;;
69954;SDS011;57279;55.912;37.490;2022-09-29T13:58:24;26.15;;;7.25;;
69954;SDS011;57279;55.912;37.490;2022-09-29T14:00:53;27.55;;;7.22;;
69954;SDS011;57279;55.912;37.490;2022-09-29T14:03:22;18.88;;;7.55;;
69954;SDS011;57279;55.912;37.490;2022-09-29T14:05:52;23.23;;;6.95;;
69954;SDS011;57279;55.912;37.490;2022-09-29T14:08:21;22.25;;;6.80;;
69954;SDS011;57279;55.912;37.490;2022-09-29T14:10:56;17.25;;;7.15;;
69954;SDS011;57279;55.912;37.490;2022-09-29T14:13:40;21.13;;;7.28;;
69954;SDS011;57279;55.912;37.490;2022-09-29T14:21:46;22.85;;;8.25;;
69954;SDS011;57279;55.912;37.490;2022-09-29T14:29:54;25.45;;;7.82;;
69954;SDS011;57279;55.912;37.490;2022-09-29T14:37:44;22.50;;;8.02;;
69954;SDS011;57279;55.912;37.490;2022-09-29T14:40:15;21.95;;;8.18;;
69954;SDS011;57279;55.912;37.490;2022-09-29T14:43:01;50.05;;;10.30;;
69954;SDS011;57279;55.912;37.490;2022-09-29T14:46:07;34.25;;;9.80;;
69954;SDS011;57279;55.912;37.490;2022-09-29T15:03:07;24.13;;;8.20;;
69954;SDS011;57279;55.912;37.490;2022-09-29T15:05:34;22.27;;;9.13;;
69954;SDS011;57279;55.912;37.490;2022-09-29T15:08:02;26.90;;;9.50;;
69954;SDS011;57279;55.912;37.490;2022-09-29T15:10:44;25.80;;;9.88;;
69954;SDS011;57279;55.912;37.490;2022-09-29T15:13:24;26.10;;;9.63;;
69954;SDS011;57279;55.912;37.490;2022-09-29T15:16:18;27.05;;;9.65;;
69954;SDS011;57279;55.912;37.490;2022-09-29T15:21:48;22.95;;;10.07;;
69954;SDS011;57279;55.912;37.490;2022-09-29T15:27:23;31.52;;;9.70;;
69954;SDS011;57279;55.912;37.490;2022-09-29T15:29:52;29.67;;;9.93;;
69954;SDS011;57279;55.912;37.490;2022-09-29T15:34:49;22.60;;;8.48;;
69954;SDS011;57279;55.912;37.490;2022-09-29T15:37:16;30.83;;;8.95;;
69954;SDS011;57279;55.912;37.490;2022-09-29T15:39:44;26.83;;;8.65;;
69954;SDS011;57279;55.912;37.490;2022-09-29T15:42:15;23.52;;;8.52;;
69954;SDS011;57279;55.912;37.490;2022-09-29T15:44:43;27.23;;;8.95;;
69954;SDS011;57279;55.912;37.490;2022-09-29T15:47:19;22.10;;;8.43;;
69954;SDS011;57279;55.912;37.490;2022-09-29T15:49:51;25.40;;;8.27;;
69954;SDS011;57279;55.912;37.490;2022-09-29T15:52:18;25.23;;;8.82;;
69954;SDS011;57279;55.912;37.490;2022-09-29T15:54:47;39.03;;;9.63;;
69954;SDS011;57279;55.912;37.490;2022-09-29T15:57:27;32.78;;;8.77;;
69954;SDS011;57279;55.912;37.490;2022-09-29T16:05:26;32.88;;;9.10;;
69954;SDS011;57279;55.912;37.490;2022-09-29T16:08:03;34.05;;;9.57;;
69954;SDS011;57279;55.912;37.490;2022-09-29T16:10:40;28.00;;;9.75;;
69954;SDS011;57279;55.912;37.490;2022-09-29T16:13:16;26.55;;;9.35;;
69954;SDS011;57279;55.912;37.490;2022-09-29T16:15:48;30.20;;;9.05;;
69954;SDS011;57279;55.912;37.490;2022-09-29T16:18:19;25.30;;;9.20;;
69954;SDS011;57279;55.912;37.490;2022-09-29T16:20:47;28.65;;;10.85;;
69954;SDS011;57279;55.912;37.490;2022-09-29T16:23:24;31.88;;;11.00;;
69954;SDS011;57279;55.912;37.490;2022-09-29T16:26:12;31.15;;;11.18;;
69954;SDS011;57279;55.912;37.490;2022-09-29T16:31:35;28.83;;;10.27;;
69954;SDS011;57279;55.912;37.490;2022-09-29T16:34:03;31.65;;;10.43;;
69954;SDS011;57279;55.912;37.490;2022-09-29T16:36:48;26.40;;;10.30;;
69954;SDS011;57279;55.912;37.490;2022-09-29T16:39:26;39.35;;;10.02;;
69954;SDS011;57279;55.912;37.490;2022-09-29T16:41:55;32.08;;;11.10;;
69954;SDS011;57279;55.912;37.490;2022-09-29T16:44:24;36.75;;;11.57;;
69954;SDS011;57279;55.912;37.490;2022-09-29T16:46:58;36.13;;;10.02;;
69954;SDS011;57279;55.912;37.490;2022-09-29T16:49:45;33.97;;;12.70;;
69954;SDS011;57279;55.912;37.490;2022-09-29T16:52:20;31.75;;;12.55;;
69954;SDS011;57279;55.912;37.490;2022-09-29T17:00:24;27.42;;;9.30;;
69954;SDS011;57279;55.912;37.490;2022-09-29T17:02:54;28.30;;;9.63;;
69954;SDS011;57279;55.912;37.490;2022-09-29T17:05:24;23.08;;;9.70;;
69954;SDS011;57279;55.912;37.490;2022-09-29T17:08:01;31.55;;;9.88;;
69954;SDS011;57279;55.912;37.490;2022-09-29T17:10:28;23.15;;;9.93;;
69954;SDS011;57279;55.912;37.490;2022-09-29T17:12:54;28.77;;;10.60;;
69954;SDS011;57279;55.912;37.490;2022-09-29T17:15:20;28.65;;;9.77;;
69954;SDS011;57279;55.912;37.490;2022-09-29T17:17:48;32.42;;;11.68;;
69954;SDS011;57279;55.912;37.490;2022-09-29T17:20:16;32.45;;;11.48;;
69954;SDS011;57279;55.912;37.490;2022-09-29T17:22:43;27.95;;;11.70;;
69954;SDS011;57279;55.912;37.490;2022-09-29T17:25:09;28.90;;;13.02;;
69954;SDS011;57279;55.912;37.490;2022-09-29T17:27:36;34.05;;;12.85;;
69954;SDS011;57279;55.912;37.490;2022-09-29T17:30:21;30.85;;;13.52;;
69954;SDS011;57279;55.912;37.490;2022-09-29T17:32:51;41.35;;;13.80;;
69954;SDS011;57279;55.912;37.490;2022-09-29T17:35:19;39.28;;;14.35;;
69954;SDS011;57279;55.912;37.490;2022-09-29T17:37:48;36.88;;;14.02;;
69954;SDS011;57279;55.912;37.490;2022-09-29T17:43:01;44.30;;;16.40;;
69954;SDS011;57279;55.912;37.490;2022-09-29T17:45:27;36.38;;;14.50;;
69954;SDS011;57279;55.912;37.490;2022-09-29T17:47:54;36.13;;;13.88;;
69954;SDS011;57279;55.912;37.490;2022-09-29T17:50:27;41.20;;;15.23;;
69954;SDS011;57279;55.912;37.490;2022-09-29T17:52:57;39.58;;;14.52;;
69954;SDS011;57279;55.912;37.490;2022-09-29T17:55:24;44.58;;;15.07;;
69954;SDS011;57279;55.912;37.490;2022-09-29T17:57:51;45.67;;;15.38;;
69954;SDS011;57279;55.912;37.490;2022-09-29T18:00:19;43.63;;;14.98;;
69954;SDS011;57279;55.912;37.490;2022-09-29T18:02:47;42.35;;;14.57;;
69954;SDS011;57279;55.912;37.490;2022-09-29T18:05:14;39.20;;;12.98;;
69954;SDS011;57279;55.912;37.490;2022-09-29T18:07:47;35.88;;;12.55;;
69954;SDS011;57279;55.912;37.490;2022-09-29T18:10:18;32.42;;;11.57;;
69954;SDS011;57279;55.912;37.490;2022-09-29T18:12:51;25.45;;;10.68;;
69954;SDS011;57279;55.912;37.490;2022-09-29T18:15:17;26.65;;;10.68;;
69954;SDS011;57279;55.912;37.490;2022-09-29T18:17:43;22.95;;;9.95;;
69954;SDS011;57279;55.912;37.490;2022-09-29T18:20:17;27.02;;;9.50;;
69954;SDS011;57279;55.912;37.490;2022-09-29T18:22:45;25.80;;;10.27;;
69954;SDS011;57279;55.912;37.490;2022-09-29T18:25:15;25.30;;;10.50;;
69954;SDS011;57279;55.912;37.490;2022-09-29T18:27:43;23.40;;;10.10;;
69954;SDS011;57279;55.912;37.490;2022-09-29T18:30:20;25.75;;;10.70;;
69954;SDS011;57279;55.912;37.490;2022-09-29T18:32:47;35.60;;;10.30;;
69954;SDS011;57279;55.912;37.490;2022-09-29T18:35:26;22.52;;;9.32;;
69954;SDS011;57279;55.912;37.490;2022-09-29T18:37:56;23.73;;;9.48;;
69954;SDS011;57279;55.912;37.490;2022-09-29T18:40:23;26.15;;;11.32;;
69954;SDS011;57279;55.912;37.490;2022-09-29T18:42:50;33.92;;;11.48;;
69954;SDS011;57279;55.912;37.490;2022-09-29T18:45:18;35.60;;;12.52;;
69954;SDS011;57279;55.912;37.490;2022-09-29T18:47:48;34.20;;;13.27;;
69954;SDS011;57279;55.912;37.490;2022-09-29T18:50:17;38.50;;;13.43;;
69954;SDS011;57279;55.912;37.490;2022-09-29T18:52:48;37.35;;;12.73;;
69954;SDS011;57279;55.912;37.490;2022-09-29T18:55:15;39.58;;;13.15;;
69954;SDS011;57279;55.912;37.490;2022-09-29T18:57:43;37.03;;;13.50;;
69954;SDS011;57279;55.912;37.490;2022-09-29T19:00:14;33.10;;;12.88;;
69954;SDS011;57279;55.912;37.490;2022-09-29T19:02:42;36.70;;;12.35;;
69954;SDS011;57279;55.912;37.490;2022-09-29T19:05:10;31.58;;;12.32;;
69954;SDS011;57279;55.912;37.490;2022-09-29T19:07:44;32.00;;;11.60;;
69954;SDS011;57279;55.912;37.490;2022-09-29T19:10:10;37.72;;;12.30;;
69954;SDS011;57279;55.912;37.490;2022-09-29T19:12:38;30.35;;;12.30;;
69954;SDS011;57279;55.912;37.490;2022-09-29T19:15:04;33.72;;;12.55;;
69954;SDS011;57279;55.912;37.490;2022-09-29T19:17:30;27.88;;;12.07;;
69954;SDS011;57279;55.912;37.490;2022-09-29T19:19:56;33.03;;;13.23;;
69954;SDS011;57279;55.912;37.490;2022-09-29T19:22:22;29.73;;;11.98;;
69954;SDS011;57279;55.912;37.490;2022-09-29T19:24:50;30.77;;;11.07;;
69954;SDS011;57279;55.912;37.490;2022-09-29T19:27:20;31.08;;;11.95;;
69954;SDS011;57279;55.912;37.490;2022-09-29T19:29:45;32.05;;;12.20;;
69954;SDS011;57279;55.912;37.490;2022-09-29T19:32:11;28.25;;;11.10;;
69954;SDS011;57279;55.912;37.490;2022-09-29T19:37:03;33.22;;;12.57;;
69954;SDS011;57279;55.912;37.490;2022-09-29T19:39:29;31.65;;;13.02;;
69954;SDS011;57279;55.912;37.490;2022-09-29T19:41:56;35.13;;;12.20;;
69954;SDS011;57279;55.912;37.490;2022-09-29T19:44:23;41.20;;;12.93;;
69954;SDS011;57279;55.912;37.490;2022-09-29T19:46:49;31.45;;;10.32;;
69954;SDS011;57279;55.912;37.490;2022-09-29T19:49:15;24.17;;;10.32;;
69954;SDS011;57279;55.912;37.490;2022-09-29T19:51:41;27.70;;;10.88;;
69954;SDS011;57279;55.912;37.490;2022-09-29T19:54:23;28.27;;;12.35;;
69954;SDS011;57279;55.912;37.490;2022-09-29T19:56:53;27.63;;;12.48;;
69954;SDS011;57279;55.912;37.490;2022-09-29T19:59:21;38.15;;;14.65;;
69954;SDS011;57279;55.912;37.490;2022-09-29T20:01:51;40.08;;;16.65;;
69954;SDS011;57279;55.912;37.490;2022-09-29T20:04:18;36.13;;;15.77;;
69954;SDS011;57279;55.912;37.490;2022-09-29T20:06:45;31.17;;;12.98;;
69954;SDS011;57279;55.912;37.490;2022-09-29T20:09:11;26.42;;;9.85;;